createdAt,value
2022-09-12T00:01:24.385Z,7.03
2022-09-12T00:03:59.934Z,7.20
2022-09-12T00:06:35.597Z,7.18
2022-09-12T00:09:12.344Z,7.93
2022-09-12T00:11:47.099Z,10.10
2022-09-12T00:14:20.017Z,7.75
2022-09-12T00:16:52.067Z,8.45
2022-09-12T00:19:24.013Z,7.65
2022-09-12T00:21:56.173Z,8.07
2022-09-12T00:24:28.232Z,9.55
2022-09-12T00:27:01.222Z,8.07
2022-09-12T00:29:33.186Z,10.35
2022-09-12T00:32:05.163Z,6.43
2022-09-12T00:34:37.322Z,8.52
2022-09-12T00:37:09.337Z,8.27
2022-09-12T00:39:41.309Z,8.35
2022-09-12T00:42:13.588Z,6.82
2022-09-12T00:44:49.983Z,8.65
2022-09-12T00:47:28.602Z,7.85
2022-09-12T00:50:10.291Z,8.68
2022-09-12T00:52:46.609Z,14.57
2022-09-12T00:55:41.868Z,11.85
2022-09-12T00:58:41.143Z,11.55
2022-09-12T01:01:13.159Z,12.38
2022-09-12T01:03:45.309Z,10.13
2022-09-12T01:06:29.416Z,9.43
2022-09-12T01:09:05.029Z,11.00
2022-09-12T01:11:39.179Z,10.10
2022-09-12T01:14:11.277Z,11.25
2022-09-12T01:16:45.305Z,9.85
2022-09-12T01:19:46.368Z,13.23
2022-09-12T01:23:06.362Z,11.05
2022-09-12T01:26:01.143Z,10.10
2022-09-12T01:29:13.588Z,10.55
2022-09-12T01:32:15.174Z,10.63
2022-09-12T01:34:53.389Z,10.88
2022-09-12T01:37:39.774Z,10.77
2022-09-12T01:40:38.663Z,12.80
2022-09-12T01:43:37.936Z,13.20
2022-09-12T01:46:32.032Z,12.32
2022-09-12T01:49:34.230Z,14.27
2022-09-12T01:52:37.647Z,10.75
2022-09-12T01:55:22.924Z,12.93
2022-09-12T01:58:04.305Z,14.07
2022-09-12T02:00:45.873Z,13.77
2022-09-12T02:03:24.649Z,12.23
2022-09-12T02:06:19.942Z,12.23
2022-09-12T02:08:58.590Z,12.15
2022-09-12T02:11:33.396Z,13.00
2022-09-12T02:14:16.129Z,15.05
2022-09-12T02:17:02.462Z,16.35
2022-09-12T02:19:43.901Z,14.15
2022-09-12T02:22:20.117Z,16.85
2022-09-12T02:24:59.701Z,15.18
2022-09-12T02:27:40.607Z,13.20
2022-09-12T02:30:16.571Z,12.57
2022-09-12T02:33:12.261Z,13.20
2022-09-12T02:36:02.130Z,14.13
2022-09-12T02:38:42.331Z,15.38
2022-09-12T02:41:19.060Z,16.13
2022-09-12T02:43:52.850Z,17.08
2022-09-12T02:46:41.837Z,15.50
2022-09-12T02:49:14.178Z,15.25
2022-09-12T02:51:47.935Z,18.48
2022-09-12T02:54:21.246Z,16.38
2022-09-12T02:56:53.267Z,15.75
2022-09-12T02:59:26.170Z,19.48
2022-09-12T03:02:10.760Z,16.77
2022-09-12T03:05:06.710Z,18.55
2022-09-12T03:08:15.581Z,15.30
2022-09-12T03:11:18.204Z,15.07
2022-09-12T03:14:10.681Z,20.13
2022-09-12T03:16:53.908Z,16.42
2022-09-12T03:19:57.551Z,17.20
2022-09-12T03:22:39.600Z,17.27
2022-09-12T03:25:36.787Z,17.08
2022-09-12T03:28:16.096Z,18.13
2022-09-12T03:30:51.481Z,20.35
2022-09-12T03:33:25.455Z,18.10
2022-09-12T03:35:57.453Z,17.95
2022-09-12T03:38:29.366Z,18.25
2022-09-12T03:41:01.415Z,18.30
2022-09-12T03:43:33.421Z,20.20
2022-09-12T03:46:05.450Z,22.33
2022-09-12T03:48:37.490Z,21.23
2022-09-12T03:51:10.724Z,25.88
2022-09-12T03:53:42.824Z,19.50
2022-09-12T03:56:15.015Z,23.23
2022-09-12T03:58:47.466Z,19.50
2022-09-12T04:01:20.848Z,21.50
2022-09-12T04:03:53.152Z,19.77
2022-09-12T04:06:25.067Z,21.15
2022-09-12T04:08:57.259Z,21.30
2022-09-12T04:11:29.155Z,21.65
2022-09-12T04:14:01.090Z,20.50
2022-09-12T04:16:33.080Z,21.80
2022-09-12T04:19:05.082Z,22.70
2022-09-12T04:21:36.973Z,21.90
2022-09-12T04:24:09.004Z,24.30
2022-09-12T04:26:41.160Z,24.70
2022-09-12T04:29:15.147Z,22.23
2022-09-12T04:31:47.061Z,21.48
2022-09-12T04:34:19.590Z,21.70
2022-09-12T04:36:51.661Z,19.83
2022-09-12T04:39:23.652Z,24.40
2022-09-12T04:41:55.629Z,23.52
2022-09-12T04:44:27.579Z,26.10
2022-09-12T04:46:59.479Z,22.35
2022-09-12T04:49:31.700Z,27.00
2022-09-12T04:52:03.607Z,24.05
2022-09-12T04:54:35.931Z,27.42
2022-09-12T04:57:07.908Z,29.73
2022-09-12T04:59:40.049Z,23.55
2022-09-12T05:02:12.111Z,27.15
2022-09-12T05:04:44.056Z,26.45
2022-09-12T05:07:16.047Z,26.30
2022-09-12T05:09:47.984Z,26.13
2022-09-12T05:12:19.996Z,26.52
2022-09-12T05:14:51.952Z,28.17
2022-09-12T05:17:23.915Z,28.58
2022-09-12T05:19:55.907Z,25.55
2022-09-12T05:22:27.842Z,23.70
2022-09-12T05:24:59.786Z,25.73
2022-09-12T05:27:31.710Z,21.73
2022-09-12T05:30:04.821Z,21.38
2022-09-12T05:32:36.739Z,24.52
2022-09-12T05:35:08.789Z,20.15
2022-09-12T05:37:40.725Z,29.30
2022-09-12T05:40:16.196Z,22.05
2022-09-12T05:42:48.196Z,21.23
2022-09-12T05:45:20.197Z,22.90
2022-09-12T05:47:52.166Z,24.83
2022-09-12T05:50:24.190Z,22.77
2022-09-12T05:52:57.620Z,20.92
2022-09-12T05:55:31.022Z,20.60
2022-09-12T05:58:02.930Z,26.10
2022-09-12T06:00:34.921Z,21.13
2022-09-12T06:03:06.903Z,18.20
2022-09-12T06:05:39.865Z,20.52
2022-09-12T06:08:12.030Z,24.02
2022-09-12T06:10:44.072Z,17.45
2022-09-12T06:13:15.959Z,24.83
2022-09-12T06:15:47.870Z,21.35
2022-09-12T06:18:21.086Z,22.85
2022-09-12T06:20:53.000Z,21.65
2022-09-12T06:23:26.980Z,20.90
2022-09-12T06:25:58.927Z,18.38
2022-09-12T06:28:32.965Z,24.35
2022-09-12T06:31:15.863Z,25.83
2022-09-12T06:33:51.126Z,27.33
2022-09-12T06:36:29.249Z,25.98
2022-09-12T06:39:22.421Z,22.98
2022-09-12T06:41:54.639Z,17.85
2022-09-12T06:44:26.582Z,25.40
2022-09-12T06:46:58.850Z,23.17
2022-09-12T06:49:31.686Z,26.33
2022-09-12T06:52:03.661Z,25.10
2022-09-12T06:54:35.593Z,23.38
2022-09-12T06:57:08.504Z,29.98
2022-09-12T06:59:40.421Z,28.50
2022-09-12T07:02:15.406Z,32.33
2022-09-12T07:04:47.432Z,21.98
2022-09-12T07:07:19.670Z,27.63
2022-09-12T07:09:51.656Z,29.92
2022-09-12T07:12:23.645Z,29.08
2022-09-12T07:14:55.758Z,30.33
2022-09-12T07:17:27.716Z,26.95
2022-09-12T07:20:00.265Z,31.00
2022-09-12T07:22:32.260Z,34.70
2022-09-12T07:25:05.141Z,37.10
2022-09-12T07:27:39.854Z,26.23
2022-09-12T07:30:12.223Z,27.98
2022-09-12T07:32:44.517Z,37.75
2022-09-12T07:35:16.488Z,38.03
2022-09-12T07:37:48.517Z,34.70
2022-09-12T07:40:20.484Z,32.10
2022-09-12T07:42:52.555Z,35.47
2022-09-12T07:45:24.544Z,40.03
2022-09-12T07:47:56.875Z,37.05
2022-09-12T07:50:28.799Z,31.55
2022-09-12T07:53:00.868Z,33.33
2022-09-12T07:55:33.210Z,28.90
2022-09-12T07:58:05.144Z,29.63
2022-09-12T08:00:37.918Z,23.75
2022-09-12T08:03:10.298Z,39.47
2022-09-12T08:05:42.407Z,28.67
2022-09-12T08:08:14.935Z,30.58
2022-09-12T08:10:46.839Z,26.88
2022-09-12T08:13:18.791Z,26.98
2022-09-12T08:15:50.760Z,25.75
2022-09-12T08:18:22.693Z,25.08
2022-09-12T08:21:03.760Z,28.73
2022-09-12T08:23:35.930Z,28.17
2022-09-12T08:26:08.369Z,33.25
2022-09-12T08:28:45.711Z,30.58
2022-09-12T08:31:21.358Z,26.13
2022-09-12T08:33:56.801Z,21.35
2022-09-12T08:36:29.718Z,31.80
2022-09-12T08:39:07.597Z,27.40
2022-09-12T08:41:44.040Z,29.05
2022-09-12T08:44:53.714Z,27.60
2022-09-12T08:47:31.761Z,24.92
2022-09-12T08:50:09.732Z,28.25
2022-09-12T08:52:53.392Z,25.08
2022-09-12T08:55:28.191Z,31.50
2022-09-12T08:58:05.244Z,28.30
2022-09-12T09:01:04.729Z,26.10
2022-09-12T09:04:08.891Z,30.17
2022-09-12T09:07:17.757Z,26.08
2022-09-12T09:10:45.259Z,27.67
2022-09-12T09:14:05.316Z,24.17
2022-09-12T09:19:21.703Z,23.63
2022-09-12T09:22:03.615Z,26.25
2022-09-12T09:24:41.670Z,23.92
2022-09-12T09:27:39.245Z,29.90
2022-09-12T09:30:18.951Z,20.90
2022-09-12T09:33:02.204Z,21.33
2022-09-12T09:35:42.880Z,22.83
2022-09-12T09:38:38.544Z,26.42
2022-09-12T09:41:41.898Z,23.95
2022-09-12T09:44:14.055Z,23.20
2022-09-12T09:46:55.018Z,22.23
2022-09-12T09:49:31.466Z,25.85
2022-09-12T09:52:06.371Z,20.02
2022-09-12T09:54:47.625Z,17.35
2022-09-12T09:57:41.318Z,29.98
2022-09-12T10:00:26.739Z,23.50
2022-09-12T10:03:13.747Z,24.83
2022-09-12T10:05:53.048Z,18.80
2022-09-12T10:08:36.948Z,16.27
2022-09-12T10:11:26.998Z,21.80
2022-09-12T10:14:03.177Z,15.25
2022-09-12T10:16:52.784Z,22.27
2022-09-12T10:19:36.168Z,11.93
2022-09-12T10:22:20.566Z,15.50
2022-09-12T10:24:57.207Z,19.45
2022-09-12T10:27:32.442Z,15.45
2022-09-12T10:30:17.779Z,20.20
2022-09-12T10:32:50.942Z,13.95
2022-09-12T10:35:31.685Z,12.02
2022-09-12T10:38:07.119Z,12.40
2022-09-12T10:40:42.856Z,13.80
2022-09-12T10:43:44.915Z,13.63
2022-09-12T10:46:19.675Z,13.32
2022-09-12T10:49:13.960Z,12.60
2022-09-12T10:51:45.864Z,10.25
2022-09-12T10:54:21.064Z,11.40
2022-09-12T10:57:26.982Z,16.70
2022-09-12T11:00:18.270Z,7.35
2022-09-12T11:03:07.037Z,8.20
2022-09-12T11:05:56.040Z,8.25
2022-09-12T11:08:44.368Z,7.90
2022-09-12T11:11:19.247Z,6.45
2022-09-12T11:14:10.631Z,12.82
2022-09-12T11:17:13.755Z,9.48
2022-09-12T11:20:19.638Z,11.75
2022-09-12T11:23:15.596Z,6.20
2022-09-12T11:26:23.013Z,7.13
2022-09-12T11:29:38.198Z,12.90
2022-09-12T11:32:51.026Z,6.13
2022-09-12T11:35:32.506Z,3.97
2022-09-12T11:38:36.458Z,7.05
2022-09-12T11:41:34.579Z,5.72
2022-09-12T11:44:29.576Z,7.85
2022-09-12T11:47:08.442Z,5.97
2022-09-12T11:49:51.125Z,2.95
2022-09-12T11:52:35.986Z,4.53
2022-09-12T11:55:17.167Z,6.10
2022-09-12T11:58:00.970Z,6.72
2022-09-12T12:00:45.031Z,5.50
2022-09-12T12:03:31.894Z,3.70
2022-09-12T12:06:21.542Z,3.65
2022-09-12T12:08:53.824Z,4.13
2022-09-12T12:11:43.185Z,3.10
2022-09-12T12:14:45.507Z,3.72
2022-09-12T12:17:23.617Z,2.75
2022-09-12T12:20:08.448Z,4.28
2022-09-12T12:22:53.175Z,4.90
2022-09-12T12:26:02.211Z,5.97
2022-09-12T12:28:58.973Z,3.80
2022-09-12T12:31:31.234Z,2.53
2022-09-12T12:34:25.250Z,2.25
2022-09-12T12:36:58.464Z,5.38
2022-09-12T12:39:51.374Z,2.38
2022-09-12T12:42:35.349Z,4.50
2022-09-12T12:45:10.183Z,4.45
2022-09-12T12:47:47.886Z,9.60
2022-09-12T12:50:19.757Z,1.98
2022-09-12T12:53:04.132Z,3.95
2022-09-12T12:55:50.331Z,4.78
2022-09-12T12:58:31.539Z,2.42
2022-09-12T13:01:19.577Z,2.40
2022-09-12T13:04:11.323Z,3.35
2022-09-12T13:06:58.550Z,1.63
2022-09-12T13:09:44.706Z,3.95
2022-09-12T13:12:44.435Z,1.73
2022-09-12T13:15:38.505Z,2.85
2022-09-12T13:18:41.206Z,4.03
2022-09-12T13:21:19.805Z,3.75
2022-09-12T13:24:15.953Z,3.80
2022-09-12T13:26:48.068Z,4.22
2022-09-12T13:29:23.331Z,2.53
2022-09-12T13:32:01.678Z,3.80
2022-09-12T13:34:37.781Z,2.30
2022-09-12T13:37:30.716Z,3.40
2022-09-12T13:40:25.427Z,3.72
2022-09-12T13:43:14.061Z,1.83
2022-09-12T13:45:47.729Z,7.30
2022-09-12T13:48:25.673Z,6.13
2022-09-12T13:51:06.138Z,3.78
2022-09-12T13:53:47.934Z,2.72
2022-09-12T13:56:21.125Z,4.30
2022-09-12T13:58:57.580Z,3.25
2022-09-12T14:01:41.606Z,3.70
2022-09-12T14:04:44.589Z,3.53
2022-09-12T14:07:23.093Z,2.97
2022-09-12T14:09:58.648Z,6.97
2022-09-12T14:12:43.468Z,11.63
2022-09-12T14:15:24.675Z,6.93
2022-09-12T14:18:01.641Z,4.10
2022-09-12T14:20:39.563Z,5.10
2022-09-12T14:23:31.210Z,2.63
2022-09-12T14:26:08.335Z,2.40
2022-09-12T14:28:47.498Z,2.72
2022-09-12T14:31:32.405Z,4.53
2022-09-12T14:34:19.125Z,2.13
2022-09-12T14:36:55.216Z,4.60
2022-09-12T14:39:38.067Z,3.58
2022-09-12T14:42:21.591Z,3.63
2022-09-12T14:45:06.594Z,5.63
2022-09-12T14:47:44.578Z,2.10
2022-09-12T14:50:21.961Z,6.03
2022-09-12T14:53:21.848Z,2.53
2022-09-12T14:56:13.618Z,3.70
2022-09-12T14:58:45.614Z,3.30
2022-09-12T15:01:25.826Z,2.58
2022-09-12T15:03:58.163Z,3.65
2022-09-12T15:06:38.074Z,3.45
2022-09-12T15:09:13.833Z,2.92
2022-09-12T15:11:45.737Z,5.38
2022-09-12T15:14:17.938Z,6.40
2022-09-12T15:16:49.887Z,3.10
2022-09-12T15:19:21.864Z,10.68
2022-09-12T15:21:53.809Z,2.88
2022-09-12T15:24:27.239Z,4.10
2022-09-12T15:26:59.234Z,3.28
2022-09-12T15:29:31.188Z,6.38
2022-09-12T15:32:03.187Z,4.95
2022-09-12T15:34:35.255Z,7.35
2022-09-12T15:37:16.562Z,3.50
2022-09-12T15:39:49.393Z,3.13
2022-09-12T15:42:29.275Z,4.07
2022-09-12T15:45:02.818Z,2.83
2022-09-12T15:47:35.148Z,4.72
2022-09-12T15:50:07.675Z,2.40
2022-09-12T15:52:39.788Z,5.80
2022-09-12T15:55:26.576Z,5.72
2022-09-12T15:58:03.599Z,3.00
2022-09-12T16:00:38.534Z,3.28
2022-09-12T16:03:25.715Z,3.60
2022-09-12T16:06:01.611Z,2.70
2022-09-12T16:08:34.490Z,3.08
2022-09-12T16:11:12.651Z,4.22
2022-09-12T16:13:44.674Z,3.30
2022-09-12T16:16:16.738Z,6.13
2022-09-12T16:18:49.103Z,4.65
2022-09-12T16:21:21.289Z,3.83
2022-09-12T16:23:53.495Z,4.28
2022-09-12T16:26:25.451Z,15.38
2022-09-12T16:28:59.189Z,7.25
2022-09-12T16:31:31.226Z,4.78
2022-09-12T16:34:03.277Z,5.50
2022-09-12T16:36:35.185Z,5.60
2022-09-12T16:39:07.366Z,5.82
2022-09-12T16:41:42.205Z,4.28
2022-09-12T16:44:14.471Z,6.60
2022-09-12T16:46:46.598Z,4.60
2022-09-12T16:49:18.648Z,5.15
2022-09-12T16:51:50.631Z,5.18
2022-09-12T16:54:22.992Z,8.30
2022-09-12T16:56:55.080Z,7.25
2022-09-12T16:59:27.057Z,8.45
2022-09-12T17:01:59.142Z,10.35
2022-09-12T17:04:31.120Z,8.82
2022-09-12T17:07:03.082Z,13.75
2022-09-12T17:09:35.320Z,8.65
2022-09-12T17:12:07.395Z,6.97
2022-09-12T17:14:39.313Z,6.50
2022-09-12T17:17:11.946Z,8.90
2022-09-12T17:19:43.965Z,14.27
2022-09-12T17:22:16.189Z,10.85
2022-09-12T17:24:48.185Z,15.57
2022-09-12T17:27:20.302Z,9.55
2022-09-12T17:29:52.285Z,13.73
2022-09-12T17:32:24.217Z,17.92
2022-09-12T17:34:57.071Z,16.50
2022-09-12T17:37:29.169Z,16.17
2022-09-12T17:40:05.873Z,23.05
2022-09-12T17:42:42.816Z,23.90
2022-09-12T17:45:18.392Z,13.48
2022-09-12T17:47:50.995Z,9.32
2022-09-12T17:50:32.092Z,6.90
2022-09-12T17:53:06.488Z,12.77
2022-09-12T17:55:40.732Z,11.20
2022-09-12T17:58:12.810Z,12.05
2022-09-12T18:01:03.182Z,9.25
2022-09-12T18:03:35.348Z,33.63
2022-09-12T18:06:07.898Z,21.15
2022-09-12T18:08:39.847Z,15.15
2022-09-12T18:11:11.895Z,15.85
2022-09-12T18:13:43.897Z,13.05
2022-09-12T18:16:16.064Z,14.65
2022-09-12T18:18:51.022Z,11.52
2022-09-12T18:21:23.104Z,14.00
2022-09-12T18:23:59.102Z,16.23
2022-09-12T18:26:31.634Z,11.65
2022-09-12T18:29:03.927Z,26.77
2022-09-12T18:31:36.329Z,19.15
2022-09-12T18:34:12.749Z,15.13
2022-09-12T18:36:50.748Z,14.27
2022-09-12T18:39:27.460Z,10.90
2022-09-12T18:41:59.897Z,10.18
2022-09-12T18:44:31.922Z,15.30
2022-09-12T18:47:04.366Z,12.23
2022-09-12T18:49:36.309Z,13.35
2022-09-12T18:52:08.391Z,11.80
2022-09-12T18:54:40.355Z,14.00
2022-09-12T18:57:12.286Z,12.15
2022-09-12T18:59:44.733Z,10.55
2022-09-12T19:02:17.126Z,9.63
2022-09-12T19:04:49.324Z,18.08
2022-09-12T19:07:21.529Z,14.25
2022-09-12T19:09:53.694Z,10.43
2022-09-12T19:12:25.678Z,11.70
2022-09-12T19:14:58.163Z,11.50
2022-09-12T19:17:30.606Z,13.73
2022-09-12T19:20:03.508Z,11.45
2022-09-12T19:22:35.421Z,15.73
2022-09-12T19:25:08.207Z,13.80
2022-09-12T19:27:40.242Z,19.00
2022-09-12T19:30:12.517Z,20.80
2022-09-12T19:32:45.000Z,11.85
2022-09-12T19:35:16.958Z,14.20
2022-09-12T19:37:49.076Z,11.05
2022-09-12T19:40:21.075Z,10.63
2022-09-12T19:42:53.555Z,15.50
2022-09-12T19:45:25.605Z,6.28
2022-09-12T19:47:57.686Z,11.07
2022-09-12T19:50:33.351Z,9.23
2022-09-12T19:53:06.073Z,11.15
2022-09-12T19:55:38.426Z,5.35
2022-09-12T19:58:10.862Z,11.07
2022-09-12T20:00:42.822Z,9.05
2022-09-12T20:03:14.780Z,7.85
2022-09-12T20:05:46.742Z,10.93
2022-09-12T20:08:18.696Z,11.77
2022-09-12T20:10:55.053Z,10.27
2022-09-12T20:13:28.857Z,7.40
2022-09-12T20:16:28.680Z,7.55
2022-09-12T20:19:08.618Z,8.70
2022-09-12T20:21:40.848Z,7.30
2022-09-12T20:24:15.821Z,10.05
2022-09-12T20:26:47.862Z,8.73
2022-09-12T20:29:19.764Z,6.95
2022-09-12T20:31:51.737Z,10.77
2022-09-12T20:34:23.735Z,8.13
2022-09-12T20:36:55.700Z,7.25
2022-09-12T20:39:27.805Z,7.97
2022-09-12T20:41:59.744Z,7.28
2022-09-12T20:44:31.696Z,7.85
2022-09-12T20:47:03.777Z,10.93
2022-09-12T20:49:35.709Z,13.40
2022-09-12T20:52:07.660Z,6.75
2022-09-12T20:54:39.579Z,8.35
2022-09-12T20:57:11.557Z,9.02
2022-09-12T20:59:43.473Z,10.10
2022-09-12T21:02:16.641Z,13.95
2022-09-12T21:04:48.669Z,22.20
2022-09-12T21:07:20.607Z,9.13
2022-09-12T21:09:54.380Z,19.40
2022-09-12T21:12:28.354Z,25.90
2022-09-12T21:15:00.461Z,13.80
2022-09-12T21:17:32.475Z,11.95
2022-09-12T21:20:08.048Z,12.77
2022-09-12T21:22:43.331Z,10.85
2022-09-12T21:25:15.364Z,11.27
2022-09-12T21:27:47.295Z,17.13
2022-09-12T21:30:19.421Z,9.27
2022-09-12T21:32:52.030Z,9.57
2022-09-12T21:35:24.141Z,13.88
2022-09-12T21:37:56.136Z,7.93
2022-09-12T21:40:28.229Z,13.07
2022-09-12T21:43:00.426Z,13.88
2022-09-12T21:45:32.443Z,10.80
2022-09-12T21:48:04.766Z,11.05
2022-09-12T21:50:36.723Z,15.57
2022-09-12T21:53:08.726Z,14.07
2022-09-12T21:55:40.708Z,10.45
2022-09-12T21:58:12.715Z,10.70
2022-09-12T22:00:44.832Z,9.98
2022-09-12T22:03:17.924Z,8.63
2022-09-12T22:06:08.111Z,7.35
2022-09-12T22:08:40.445Z,5.80
2022-09-12T22:11:12.990Z,9.90
2022-09-12T22:13:45.307Z,4.93
2022-09-12T22:16:17.853Z,7.60
2022-09-12T22:18:50.861Z,9.55
2022-09-12T22:21:24.389Z,13.48
2022-09-12T22:24:15.071Z,8.30
2022-09-12T22:26:47.177Z,6.80
2022-09-12T22:29:19.760Z,7.13
2022-09-12T22:31:51.758Z,21.70
2022-09-12T22:34:23.716Z,15.95
2022-09-12T22:36:56.522Z,47.53
2022-09-12T22:39:28.502Z,12.77
2022-09-12T22:42:01.673Z,20.27
2022-09-12T22:44:33.910Z,7.55
2022-09-12T22:47:05.932Z,5.28
2022-09-12T22:49:37.992Z,10.80
2022-09-12T22:52:09.911Z,8.57
2022-09-12T22:54:43.686Z,7.35
2022-09-12T22:57:15.624Z,6.80
2022-09-12T22:59:47.560Z,6.72
2022-09-12T23:02:19.483Z,11.00
2022-09-12T23:04:52.483Z,6.88
2022-09-12T23:07:24.491Z,7.88
2022-09-12T23:09:56.386Z,11.07
2022-09-12T23:12:28.369Z,7.70
2022-09-12T23:15:00.398Z,11.52
2022-09-12T23:17:34.976Z,23.75
2022-09-12T23:20:07.830Z,14.32
2022-09-12T23:22:39.779Z,26.83
2022-09-12T23:25:11.855Z,17.00
2022-09-12T23:27:44.438Z,12.40
2022-09-12T23:30:21.290Z,58.58
2022-09-12T23:32:53.274Z,18.02
2022-09-12T23:35:25.298Z,14.95
2022-09-12T23:37:57.941Z,8.05
2022-09-12T23:40:29.873Z,7.18
2022-09-12T23:43:01.826Z,8.38
2022-09-12T23:45:33.890Z,11.13
2022-09-12T23:48:05.871Z,9.57
2022-09-12T23:50:37.804Z,7.00
2022-09-12T23:53:11.857Z,6.70
2022-09-12T23:55:44.966Z,6.18
2022-09-12T23:58:17.426Z,8.07
